SAS1777 EKCH-EKVG
Flight info
| Callsign | SAS1777 |
|---|---|
| Flight time | 1h 55m |
| Altitude | 36000 |
| Route | GOLGA DCT AMSEV DCT ZOL DCT GUNPA/M077F360 DCT ROBUR |
| Aircraft | A320/M-SDE3FGHIJ1RWXYZ/ALB1 |
Departure
| Time | 2026-05-07 12:00 |
|---|---|
| Airport | Copenhagen Kastrup Airport (EKCH) |
Arrival
| Time | 2026-05-07 13:55 |
|---|---|
| Airport | Vágar Airport (EKVG) |
| Time | Latitude | Longitude | Altitude | Speed | Heading |
|---|---|---|---|---|---|
| 2026-05-07 11:11 | 55.62755 | 12.64476 | 17 ft | 0 kts | 102° |
| 2026-05-07 11:44 | 55.62756 | 12.64468 | 17 ft | 3 kts | 102° |
| 2026-05-07 11:44 | 55.62761 | 12.64425 | 18 ft | 1 kts | 102° |
| 2026-05-07 11:44 | 55.62761 | 12.64393 | 17 ft | 4 kts | 42° |
| 2026-05-07 11:45 | 55.62740 | 12.64370 | 18 ft | 4 kts | 27° |
| 2026-05-07 11:45 | 55.62720 | 12.64352 | 19 ft | 2 kts | 27° |
| 2026-05-07 11:45 | 55.62698 | 12.64334 | 19 ft | 4 kts | 21° |
| 2026-05-07 11:45 | 55.62678 | 12.64320 | 17 ft | 4 kts | 21° |
| 2026-05-07 11:46 | 55.62653 | 12.64303 | 17 ft | 4 kts | 23° |
| 2026-05-07 11:46 | 55.62629 | 12.64282 | 17 ft | 4 kts | 32° |
| 2026-05-07 11:46 | 55.62608 | 12.64256 | 17 ft | 4 kts | 54° |
| 2026-05-07 11:46 | 55.62600 | 12.64216 | 17 ft | 4 kts | 99° |
| 2026-05-07 11:47 | 55.62610 | 12.64177 | 17 ft | 4 kts | 123° |
| 2026-05-07 11:47 | 55.62625 | 12.64137 | 17 ft | 4 kts | 123° |
| 2026-05-07 11:47 | 55.62630 | 12.64123 | 17 ft | 0 kts | 123° |
| 2026-05-07 11:51 | 55.62616 | 12.64157 | 17 ft | 8 kts | 124° |
| 2026-05-07 11:51 | 55.62576 | 12.64259 | 18 ft | 11 kts | 125° |
| 2026-05-07 11:52 | 55.62535 | 12.64371 | 17 ft | 11 kts | 123° |
| 2026-05-07 11:52 | 55.62490 | 12.64491 | 18 ft | 12 kts | 123° |
| 2026-05-07 11:52 | 55.62442 | 12.64621 | 19 ft | 13 kts | 123° |
| 2026-05-07 11:52 | 55.62388 | 12.64768 | 17 ft | 15 kts | 123° |
| 2026-05-07 11:53 | 55.62326 | 12.64935 | 19 ft | 17 kts | 123° |
| 2026-05-07 11:53 | 55.62271 | 12.65085 | 18 ft | 10 kts | 123° |
| 2026-05-07 11:53 | 55.62218 | 12.65175 | 18 ft | 11 kts | 166° |
| 2026-05-07 11:53 | 55.62146 | 12.65114 | 18 ft | 13 kts | 213° |
| 2026-05-07 11:54 | 55.62066 | 12.65022 | 18 ft | 15 kts | 213° |
| 2026-05-07 11:54 | 55.61973 | 12.64911 | 17 ft | 18 kts | 214° |
| 2026-05-07 11:54 | 55.61874 | 12.64798 | 17 ft | 17 kts | 212° |
| 2026-05-07 11:54 | 55.61770 | 12.64681 | 18 ft | 19 kts | 213° |
| 2026-05-07 11:55 | 55.61662 | 12.64558 | 19 ft | 18 kts | 213° |
| 2026-05-07 11:55 | 55.61554 | 12.64432 | 18 ft | 18 kts | 214° |
| 2026-05-07 11:55 | 55.61456 | 12.64316 | 19 ft | 17 kts | 214° |
| 2026-05-07 11:55 | 55.61356 | 12.64194 | 17 ft | 18 kts | 212° |
| 2026-05-07 11:56 | 55.61250 | 12.64074 | 17 ft | 18 kts | 212° |
| 2026-05-07 11:56 | 55.61143 | 12.63950 | 17 ft | 19 kts | 213° |
| 2026-05-07 11:56 | 55.61033 | 12.63822 | 20 ft | 19 kts | 215° |
| 2026-05-07 11:56 | 55.60932 | 12.63711 | 17 ft | 17 kts | 211° |
| 2026-05-07 11:57 | 55.60832 | 12.63598 | 17 ft | 17 kts | 214° |
| 2026-05-07 11:57 | 55.60730 | 12.63478 | 17 ft | 18 kts | 214° |
| 2026-05-07 11:57 | 55.60676 | 12.63413 | 17 ft | 2 kts | 214° |
| 2026-05-07 11:57 | 55.60643 | 12.63372 | 17 ft | 8 kts | 216° |
| 2026-05-07 11:58 | 55.60595 | 12.63304 | 17 ft | 10 kts | 220° |
| 2026-05-07 11:58 | 55.60540 | 12.63221 | 18 ft | 11 kts | 220° |
| 2026-05-07 11:58 | 55.60472 | 12.63128 | 17 ft | 13 kts | 209° |
| 2026-05-07 11:58 | 55.60403 | 12.63151 | 18 ft | 10 kts | 131° |
| 2026-05-07 11:59 | 55.60371 | 12.63216 | 19 ft | 7 kts | 130° |
| 2026-05-07 11:59 | 55.60342 | 12.63288 | 19 ft | 7 kts | 108° |
| 2026-05-07 11:59 | 55.60354 | 12.63368 | 19 ft | 9 kts | 43° |
| 2026-05-07 11:59 | 55.60502 | 12.63601 | 18 ft | 59 kts | 41° |
| 2026-05-07 12:00 | 55.60973 | 12.64327 | 17 ft | 118 kts | 41° |
| 2026-05-07 12:00 | 55.61719 | 12.65476 | 37 ft | 162 kts | 41° |
| 2026-05-07 12:00 | 55.62553 | 12.66762 | 637 ft | 156 kts | 39° |
| 2026-05-07 12:00 | 55.63399 | 12.67978 | 1186 ft | 162 kts | 38° |
| 2026-05-07 12:01 | 55.64334 | 12.69303 | 1449 ft | 183 kts | 39° |
| 2026-05-07 12:01 | 55.65372 | 12.70823 | 1702 ft | 206 kts | 30° |
| 2026-05-07 12:01 | 55.66814 | 12.71461 | 2012 ft | 230 kts | 353° |
| 2026-05-07 12:01 | 55.68432 | 12.70643 | 2453 ft | 252 kts | 344° |
| 2026-05-07 12:02 | 55.70177 | 12.70077 | 3296 ft | 256 kts | 353° |
| 2026-05-07 12:02 | 55.71957 | 12.69743 | 4243 ft | 259 kts | 355° |
| 2026-05-07 12:02 | 55.73760 | 12.69500 | 5159 ft | 261 kts | 356° |
| 2026-05-07 12:02 | 55.75585 | 12.69296 | 6041 ft | 264 kts | 357° |
| 2026-05-07 12:03 | 55.77436 | 12.69108 | 6898 ft | 267 kts | 357° |
| 2026-05-07 12:03 | 55.79307 | 12.68887 | 7718 ft | 272 kts | 351° |
| 2026-05-07 12:03 | 55.81125 | 12.67872 | 8506 ft | 277 kts | 332° |
| 2026-05-07 12:03 | 55.82677 | 12.65819 | 9263 ft | 281 kts | 313° |
| 2026-05-07 12:04 | 55.83771 | 12.62910 | 10007 ft | 287 kts | 294° |
| 2026-05-07 12:04 | 55.84515 | 12.59565 | 10515 ft | 300 kts | 291° |
| 2026-05-07 12:04 | 55.85307 | 12.55967 | 10720 ft | 323 kts | 291° |
| 2026-05-07 12:04 | 55.86145 | 12.52184 | 11183 ft | 333 kts | 291° |
| 2026-05-07 12:05 | 55.86992 | 12.48365 | 11818 ft | 338 kts | 291° |
| 2026-05-07 12:05 | 55.87858 | 12.44457 | 12486 ft | 341 kts | 291° |
| 2026-05-07 12:05 | 55.88740 | 12.40473 | 13138 ft | 343 kts | 291° |
| 2026-05-07 12:05 | 55.89617 | 12.36488 | 13793 ft | 346 kts | 291° |
| 2026-05-07 12:06 | 55.90665 | 12.32615 | 14432 ft | 350 kts | 301° |
| 2026-05-07 12:06 | 55.92053 | 12.29033 | 15051 ft | 353 kts | 305° |
| 2026-05-07 12:06 | 55.93479 | 12.25456 | 15661 ft | 355 kts | 304° |
| 2026-05-07 12:06 | 55.94911 | 12.21856 | 16246 ft | 357 kts | 304° |
| 2026-05-07 12:07 | 55.96355 | 12.18217 | 16814 ft | 361 kts | 304° |
| 2026-05-07 12:07 | 55.97803 | 12.14544 | 17386 ft | 363 kts | 304° |
| 2026-05-07 12:07 | 55.99241 | 12.10881 | 17941 ft | 366 kts | 304° |
| 2026-05-07 12:07 | 56.00724 | 12.07095 | 18509 ft | 369 kts | 304° |
| 2026-05-07 12:08 | 56.02195 | 12.03398 | 19048 ft | 372 kts | 307° |
| 2026-05-07 12:08 | 56.03977 | 12.00018 | 19621 ft | 376 kts | 318° |
| 2026-05-07 12:08 | 56.06102 | 11.97263 | 20169 ft | 381 kts | 328° |
| 2026-05-07 12:08 | 56.08424 | 11.94920 | 20712 ft | 384 kts | 329° |
| 2026-05-07 12:09 | 56.10759 | 11.92566 | 21230 ft | 387 kts | 329° |
| 2026-05-07 12:09 | 56.13116 | 11.90176 | 21739 ft | 390 kts | 329° |
| 2026-05-07 12:09 | 56.15480 | 11.87766 | 22220 ft | 393 kts | 329° |
| 2026-05-07 12:09 | 56.17865 | 11.85331 | 22698 ft | 396 kts | 329° |
| 2026-05-07 12:10 | 56.20268 | 11.82875 | 23152 ft | 399 kts | 329° |
| 2026-05-07 12:10 | 56.22687 | 11.80395 | 23605 ft | 401 kts | 329° |
| 2026-05-07 12:10 | 56.25118 | 11.77908 | 24038 ft | 404 kts | 329° |
| 2026-05-07 12:10 | 56.27567 | 11.75401 | 24458 ft | 406 kts | 329° |
| 2026-05-07 12:11 | 56.30032 | 11.72876 | 24871 ft | 408 kts | 329° |
| 2026-05-07 12:11 | 56.32451 | 11.70177 | 25264 ft | 410 kts | 322° |
| 2026-05-07 12:11 | 56.34613 | 11.66826 | 25654 ft | 411 kts | 313° |
| 2026-05-07 12:11 | 56.36528 | 11.62986 | 26029 ft | 413 kts | 310° |
| 2026-05-07 12:12 | 56.38430 | 11.59092 | 26395 ft | 415 kts | 310° |
| 2026-05-07 12:12 | 56.40343 | 11.55178 | 26776 ft | 417 kts | 310° |
| 2026-05-07 12:12 | 56.42264 | 11.51245 | 27133 ft | 419 kts | 311° |
| 2026-05-07 12:12 | 56.44196 | 11.47293 | 27488 ft | 420 kts | 311° |
| 2026-05-07 12:13 | 56.46136 | 11.43325 | 27842 ft | 422 kts | 311° |
| 2026-05-07 12:13 | 56.48085 | 11.39339 | 28184 ft | 424 kts | 311° |
| 2026-05-07 12:13 | 56.50040 | 11.35330 | 28503 ft | 426 kts | 311° |
| 2026-05-07 12:13 | 56.52000 | 11.31296 | 28836 ft | 427 kts | 311° |
| 2026-05-07 12:14 | 56.53963 | 11.27237 | 29164 ft | 429 kts | 311° |
| 2026-05-07 12:14 | 56.55929 | 11.23167 | 29480 ft | 431 kts | 311° |
| 2026-05-07 12:14 | 56.57910 | 11.19069 | 29789 ft | 433 kts | 311° |
| 2026-05-07 12:14 | 56.59872 | 11.15009 | 30087 ft | 434 kts | 311° |
| 2026-05-07 12:15 | 56.61888 | 11.10830 | 30488 ft | 433 kts | 311° |
| 2026-05-07 12:15 | 56.63841 | 11.06771 | 30904 ft | 432 kts | 311° |
| 2026-05-07 12:15 | 56.65838 | 11.02605 | 31327 ft | 430 kts | 311° |
| 2026-05-07 12:15 | 56.67795 | 10.98511 | 31736 ft | 429 kts | 310° |
| 2026-05-07 12:16 | 56.69724 | 10.94470 | 32137 ft | 428 kts | 310° |
| 2026-05-07 12:16 | 56.71671 | 10.90377 | 32532 ft | 427 kts | 310° |
| 2026-05-07 12:16 | 56.73615 | 10.86287 | 32922 ft | 426 kts | 310° |
| 2026-05-07 12:16 | 56.75553 | 10.82203 | 33309 ft | 426 kts | 310° |
| 2026-05-07 12:17 | 56.77488 | 10.78126 | 33691 ft | 425 kts | 310° |
| 2026-05-07 12:17 | 56.79415 | 10.74058 | 34073 ft | 423 kts | 310° |
| 2026-05-07 12:17 | 56.81336 | 10.69995 | 34439 ft | 422 kts | 310° |
| 2026-05-07 12:17 | 56.83253 | 10.65932 | 34748 ft | 423 kts | 310° |
| 2026-05-07 12:18 | 56.85171 | 10.61860 | 35032 ft | 423 kts | 310° |
| 2026-05-07 12:18 | 56.87092 | 10.57785 | 35315 ft | 423 kts | 310° |
| 2026-05-07 12:18 | 56.89015 | 10.53703 | 35585 ft | 424 kts | 310° |
| 2026-05-07 12:18 | 56.90937 | 10.49611 | 35842 ft | 424 kts | 310° |
| 2026-05-07 12:19 | 56.92856 | 10.45511 | 36048 ft | 425 kts | 310° |
| 2026-05-07 12:19 | 56.96734 | 10.37201 | 36110 ft | 432 kts | 309° |
| 2026-05-07 12:20 | 57.00640 | 10.28802 | 36110 ft | 433 kts | 309° |
| 2026-05-07 12:20 | 57.04545 | 10.20385 | 36109 ft | 433 kts | 309° |
| 2026-05-07 12:21 | 57.08446 | 10.11961 | 36109 ft | 433 kts | 309° |
| 2026-05-07 12:21 | 57.12323 | 10.03522 | 36110 ft | 432 kts | 309° |
| 2026-05-07 12:22 | 57.16201 | 9.95058 | 36108 ft | 432 kts | 309° |
| 2026-05-07 12:22 | 57.20071 | 9.86582 | 36113 ft | 432 kts | 309° |
| 2026-05-07 12:23 | 57.23939 | 9.78089 | 36111 ft | 431 kts | 309° |
| 2026-05-07 12:23 | 57.27794 | 9.69604 | 36108 ft | 431 kts | 309° |
| 2026-05-07 12:24 | 57.31611 | 9.61154 | 36110 ft | 431 kts | 309° |
| 2026-05-07 12:24 | 57.35442 | 9.52641 | 36110 ft | 431 kts | 309° |
| 2026-05-07 12:25 | 57.39276 | 9.44108 | 36112 ft | 431 kts | 309° |
| 2026-05-07 12:25 | 57.43110 | 9.35549 | 36107 ft | 431 kts | 309° |
| 2026-05-07 12:26 | 57.46727 | 9.27436 | 36112 ft | 431 kts | 308° |
| 2026-05-07 12:26 | 57.50538 | 9.18831 | 36117 ft | 431 kts | 308° |
| 2026-05-07 12:27 | 57.54351 | 9.10218 | 36111 ft | 431 kts | 308° |
| 2026-05-07 12:27 | 57.58156 | 9.01605 | 36118 ft | 431 kts | 308° |
| 2026-05-07 12:28 | 57.61954 | 8.92952 | 36118 ft | 431 kts | 308° |
| 2026-05-07 12:28 | 57.65748 | 8.84284 | 36122 ft | 431 kts | 308° |
| 2026-05-07 12:29 | 57.69497 | 8.75543 | 36123 ft | 431 kts | 307° |
| 2026-05-07 12:29 | 57.72496 | 8.68118 | 36113 ft | 431 kts | 306° |
| 2026-05-07 12:30 | 57.76060 | 8.59108 | 36120 ft | 430 kts | 306° |
| 2026-05-07 12:30 | 57.79635 | 8.50109 | 36125 ft | 430 kts | 306° |
| 2026-05-07 12:31 | 57.83217 | 8.41138 | 36118 ft | 430 kts | 306° |
| 2026-05-07 12:31 | 57.86804 | 8.32163 | 36122 ft | 429 kts | 306° |
| 2026-05-07 12:32 | 57.90371 | 8.23184 | 36115 ft | 429 kts | 306° |
| 2026-05-07 12:32 | 57.93933 | 8.14172 | 36120 ft | 429 kts | 305° |
| 2026-05-07 12:33 | 57.99243 | 8.00636 | 36122 ft | 428 kts | 305° |
| 2026-05-07 12:33 | 58.02779 | 7.91594 | 36134 ft | 428 kts | 305° |
| 2026-05-07 12:34 | 58.06313 | 7.82534 | 36141 ft | 428 kts | 305° |
| 2026-05-07 12:34 | 58.09834 | 7.73442 | 36145 ft | 429 kts | 305° |
| 2026-05-07 12:35 | 58.13357 | 7.64340 | 36148 ft | 428 kts | 305° |
| 2026-05-07 12:35 | 58.16868 | 7.55234 | 36149 ft | 428 kts | 305° |
| 2026-05-07 12:36 | 58.20348 | 7.46166 | 36149 ft | 428 kts | 305° |
| 2026-05-07 12:36 | 58.23846 | 7.37035 | 36151 ft | 428 kts | 305° |
| 2026-05-07 12:37 | 58.27335 | 7.27889 | 36146 ft | 427 kts | 304° |
| 2026-05-07 12:37 | 58.30809 | 7.18718 | 36146 ft | 427 kts | 304° |
| 2026-05-07 12:38 | 58.34270 | 7.09537 | 36144 ft | 427 kts | 304° |
| 2026-05-07 12:38 | 58.37726 | 7.00344 | 36143 ft | 427 kts | 304° |
| 2026-05-07 12:39 | 58.41181 | 6.91147 | 36134 ft | 426 kts | 304° |
| 2026-05-07 12:39 | 58.44627 | 6.81931 | 36134 ft | 426 kts | 304° |
| 2026-05-07 12:40 | 58.48068 | 6.72693 | 36137 ft | 427 kts | 304° |
| 2026-05-07 12:40 | 58.51491 | 6.63436 | 36138 ft | 426 kts | 304° |
| 2026-05-07 12:41 | 58.54909 | 6.54159 | 36127 ft | 427 kts | 304° |
| 2026-05-07 12:41 | 58.58332 | 6.44881 | 36131 ft | 426 kts | 304° |
| 2026-05-07 12:42 | 58.61743 | 6.35580 | 36130 ft | 426 kts | 304° |
| 2026-05-07 12:42 | 58.65145 | 6.26261 | 36128 ft | 426 kts | 303° |
| 2026-05-07 12:43 | 58.68535 | 6.16927 | 36130 ft | 426 kts | 303° |
| 2026-05-07 12:43 | 58.71919 | 6.07578 | 36117 ft | 426 kts | 303° |
| 2026-05-07 12:44 | 58.75303 | 5.98209 | 36117 ft | 426 kts | 303° |
| 2026-05-07 12:44 | 58.78672 | 5.88840 | 36116 ft | 425 kts | 303° |
| 2026-05-07 12:45 | 58.82029 | 5.79445 | 36117 ft | 425 kts | 303° |
| 2026-05-07 12:45 | 58.85354 | 5.70108 | 36120 ft | 425 kts | 303° |
| 2026-05-07 12:46 | 58.88723 | 5.60719 | 36124 ft | 425 kts | 305° |
| 2026-05-07 12:46 | 58.92437 | 5.51809 | 36119 ft | 426 kts | 309° |
| 2026-05-07 12:47 | 58.96297 | 5.43094 | 36124 ft | 426 kts | 308° |
| 2026-05-07 12:47 | 59.00085 | 5.34284 | 36128 ft | 425 kts | 308° |
| 2026-05-07 12:48 | 59.03808 | 5.25364 | 36129 ft | 425 kts | 307° |
| 2026-05-07 12:48 | 59.07508 | 5.16414 | 36136 ft | 424 kts | 307° |
| 2026-05-07 12:49 | 59.11202 | 5.07460 | 36136 ft | 424 kts | 307° |
| 2026-05-07 12:49 | 59.14901 | 4.98502 | 36143 ft | 424 kts | 307° |
| 2026-05-07 12:50 | 59.18594 | 4.89547 | 36145 ft | 424 kts | 307° |
| 2026-05-07 12:50 | 59.22278 | 4.80565 | 36146 ft | 424 kts | 307° |
| 2026-05-07 12:51 | 59.25950 | 4.71555 | 36150 ft | 424 kts | 307° |
| 2026-05-07 12:51 | 59.29617 | 4.62541 | 36147 ft | 423 kts | 307° |
| 2026-05-07 12:52 | 59.33281 | 4.53527 | 36144 ft | 423 kts | 307° |
| 2026-05-07 12:52 | 59.36934 | 4.44500 | 36144 ft | 422 kts | 306° |
| 2026-05-07 12:53 | 59.40566 | 4.35457 | 36146 ft | 422 kts | 306° |
| 2026-05-07 12:53 | 59.44198 | 4.26387 | 36148 ft | 422 kts | 306° |
| 2026-05-07 12:54 | 59.47821 | 4.17301 | 36150 ft | 422 kts | 306° |
| 2026-05-07 12:54 | 59.51432 | 4.08221 | 36147 ft | 421 kts | 306° |
| 2026-05-07 12:55 | 59.55018 | 3.99190 | 36146 ft | 421 kts | 306° |
| 2026-05-07 12:55 | 59.58605 | 3.90084 | 36142 ft | 420 kts | 306° |
| 2026-05-07 12:56 | 59.62189 | 3.80964 | 36138 ft | 420 kts | 306° |
| 2026-05-07 12:56 | 59.65770 | 3.71832 | 36133 ft | 420 kts | 306° |
| 2026-05-07 12:57 | 59.69339 | 3.62675 | 36140 ft | 420 kts | 305° |
| 2026-05-07 12:57 | 59.72901 | 3.53497 | 36130 ft | 420 kts | 305° |
| 2026-05-07 12:58 | 59.76452 | 3.44303 | 36133 ft | 420 kts | 305° |
| 2026-05-07 12:58 | 59.80004 | 3.35085 | 36125 ft | 420 kts | 305° |
| 2026-05-07 12:59 | 59.83549 | 3.25846 | 36121 ft | 420 kts | 305° |
| 2026-05-07 12:59 | 59.87090 | 3.16581 | 36123 ft | 421 kts | 305° |
| 2026-05-07 13:00 | 59.90625 | 3.07288 | 36117 ft | 421 kts | 305° |
| 2026-05-07 13:00 | 59.94159 | 2.97969 | 36114 ft | 421 kts | 304° |
| 2026-05-07 13:01 | 59.97687 | 2.88628 | 36115 ft | 421 kts | 304° |
| 2026-05-07 13:01 | 60.01188 | 2.79328 | 36116 ft | 422 kts | 304° |
| 2026-05-07 13:02 | 60.04711 | 2.69941 | 36113 ft | 422 kts | 304° |
| 2026-05-07 13:02 | 60.08219 | 2.60536 | 36114 ft | 422 kts | 304° |
| 2026-05-07 13:03 | 60.11723 | 2.51101 | 36119 ft | 422 kts | 304° |
| 2026-05-07 13:03 | 60.15219 | 2.41640 | 36122 ft | 422 kts | 304° |
| 2026-05-07 13:04 | 60.18710 | 2.32172 | 36122 ft | 422 kts | 304° |
| 2026-05-07 13:04 | 60.22204 | 2.22678 | 36120 ft | 423 kts | 304° |
| 2026-05-07 13:05 | 60.25688 | 2.13151 | 36122 ft | 422 kts | 303° |
| 2026-05-07 13:05 | 60.29157 | 2.03605 | 36121 ft | 422 kts | 303° |
| 2026-05-07 13:06 | 60.32618 | 1.94049 | 36112 ft | 422 kts | 303° |
| 2026-05-07 13:06 | 60.36078 | 1.84465 | 36110 ft | 422 kts | 303° |
| 2026-05-07 13:07 | 60.39527 | 1.74860 | 36095 ft | 422 kts | 303° |
| 2026-05-07 13:07 | 60.42976 | 1.65261 | 36087 ft | 422 kts | 303° |
| 2026-05-07 13:08 | 60.46423 | 1.55615 | 36082 ft | 423 kts | 303° |
| 2026-05-07 13:08 | 60.49862 | 1.45936 | 36079 ft | 423 kts | 303° |
| 2026-05-07 13:09 | 60.53291 | 1.36231 | 36076 ft | 423 kts | 303° |
| 2026-05-07 13:09 | 60.56719 | 1.26508 | 36075 ft | 423 kts | 303° |
| 2026-05-07 13:10 | 60.60141 | 1.16750 | 36080 ft | 424 kts | 303° |
| 2026-05-07 13:10 | 60.63555 | 1.06964 | 36080 ft | 424 kts | 303° |
| 2026-05-07 13:11 | 60.66961 | 0.97161 | 36077 ft | 424 kts | 302° |
| 2026-05-07 13:11 | 60.70367 | 0.87326 | 36076 ft | 424 kts | 302° |
| 2026-05-07 13:12 | 60.73780 | 0.77472 | 36076 ft | 425 kts | 302° |
| 2026-05-07 13:12 | 60.77178 | 0.67580 | 36076 ft | 425 kts | 302° |
| 2026-05-07 13:13 | 60.80568 | 0.57670 | 36074 ft | 425 kts | 302° |
| 2026-05-07 13:13 | 60.83949 | 0.47726 | 36073 ft | 425 kts | 302° |
| 2026-05-07 13:14 | 60.87330 | 0.37771 | 36072 ft | 425 kts | 302° |
| 2026-05-07 13:14 | 60.90678 | 0.27856 | 36074 ft | 425 kts | 302° |
| 2026-05-07 13:15 | 60.94043 | 0.17853 | 36069 ft | 426 kts | 302° |
| 2026-05-07 13:15 | 60.97394 | 0.07811 | 36060 ft | 425 kts | 302° |
| 2026-05-07 13:16 | 61.00385 | -0.02622 | 36061 ft | 422 kts | 290° |
| 2026-05-07 13:16 | 61.02284 | -0.14057 | 36047 ft | 422 kts | 286° |
| 2026-05-07 13:17 | 61.04148 | -0.25568 | 36032 ft | 424 kts | 286° |
| 2026-05-07 13:17 | 61.06007 | -0.37117 | 36034 ft | 424 kts | 286° |
| 2026-05-07 13:18 | 61.07544 | -0.46751 | 36033 ft | 425 kts | 286° |
| 2026-05-07 13:18 | 61.09385 | -0.58362 | 36036 ft | 425 kts | 286° |
| 2026-05-07 13:19 | 61.11224 | -0.69978 | 36036 ft | 426 kts | 286° |
| 2026-05-07 13:19 | 61.13051 | -0.81628 | 36035 ft | 426 kts | 285° |
| 2026-05-07 13:20 | 61.14859 | -0.93300 | 36037 ft | 426 kts | 285° |
| 2026-05-07 13:20 | 61.16658 | -1.04996 | 36035 ft | 426 kts | 285° |
| 2026-05-07 13:21 | 61.18447 | -1.16686 | 36025 ft | 426 kts | 285° |
| 2026-05-07 13:21 | 61.20231 | -1.28402 | 36025 ft | 426 kts | 285° |
| 2026-05-07 13:22 | 61.22004 | -1.40115 | 36021 ft | 426 kts | 285° |
| 2026-05-07 13:22 | 61.23779 | -1.51862 | 36003 ft | 426 kts | 285° |
| 2026-05-07 13:23 | 61.25520 | -1.63554 | 35996 ft | 427 kts | 285° |
| 2026-05-07 13:23 | 61.27259 | -1.75338 | 35988 ft | 426 kts | 285° |
| 2026-05-07 13:24 | 61.28990 | -1.87137 | 35985 ft | 427 kts | 285° |
| 2026-05-07 13:24 | 61.30721 | -1.98962 | 35979 ft | 428 kts | 285° |
| 2026-05-07 13:25 | 61.32439 | -2.10798 | 35975 ft | 428 kts | 285° |
| 2026-05-07 13:25 | 61.34147 | -2.22660 | 35969 ft | 427 kts | 285° |
| 2026-05-07 13:26 | 61.35845 | -2.34530 | 35967 ft | 427 kts | 284° |
| 2026-05-07 13:26 | 61.37539 | -2.46418 | 35964 ft | 428 kts | 284° |
| 2026-05-07 13:27 | 61.39218 | -2.58315 | 35965 ft | 428 kts | 284° |
| 2026-05-07 13:27 | 61.40883 | -2.70231 | 35962 ft | 427 kts | 284° |
| 2026-05-07 13:28 | 61.42540 | -2.82151 | 35959 ft | 427 kts | 284° |
| 2026-05-07 13:28 | 61.44186 | -2.94056 | 35953 ft | 427 kts | 284° |
| 2026-05-07 13:29 | 61.45822 | -3.05988 | 35949 ft | 427 kts | 284° |
| 2026-05-07 13:29 | 61.47442 | -3.17939 | 35946 ft | 427 kts | 284° |
| 2026-05-07 13:30 | 61.49043 | -3.29832 | 35941 ft | 427 kts | 284° |
| 2026-05-07 13:30 | 61.50641 | -3.41818 | 35933 ft | 428 kts | 283° |
| 2026-05-07 13:31 | 61.52231 | -3.53813 | 35917 ft | 428 kts | 283° |
| 2026-05-07 13:31 | 61.53819 | -3.65844 | 35905 ft | 428 kts | 283° |
| 2026-05-07 13:32 | 61.54609 | -3.71874 | 35671 ft | 429 kts | 283° |
| 2026-05-07 13:32 | 61.55395 | -3.77888 | 35378 ft | 426 kts | 283° |
| 2026-05-07 13:32 | 61.56177 | -3.83887 | 35127 ft | 426 kts | 283° |
| 2026-05-07 13:32 | 61.56955 | -3.89881 | 34881 ft | 426 kts | 283° |
| 2026-05-07 13:33 | 61.57728 | -3.95876 | 34631 ft | 426 kts | 283° |
| 2026-05-07 13:33 | 61.58498 | -4.01870 | 34386 ft | 425 kts | 283° |
| 2026-05-07 13:33 | 61.59265 | -4.07869 | 33944 ft | 426 kts | 283° |
| 2026-05-07 13:33 | 61.60028 | -4.13846 | 33477 ft | 422 kts | 283° |
| 2026-05-07 13:34 | 61.60785 | -4.19778 | 32984 ft | 418 kts | 283° |
| 2026-05-07 13:34 | 61.62267 | -4.31468 | 32180 ft | 407 kts | 282° |
| 2026-05-07 13:34 | 61.62991 | -4.37234 | 31531 ft | 408 kts | 282° |
| 2026-05-07 13:35 | 61.63703 | -4.42927 | 31262 ft | 398 kts | 282° |
| 2026-05-07 13:35 | 61.64400 | -4.48521 | 30861 ft | 393 kts | 282° |
| 2026-05-07 13:35 | 61.65087 | -4.54052 | 30443 ft | 388 kts | 282° |
| 2026-05-07 13:35 | 61.65764 | -4.59528 | 30013 ft | 385 kts | 281° |
| 2026-05-07 13:36 | 61.66432 | -4.64952 | 29569 ft | 381 kts | 281° |
| 2026-05-07 13:36 | 61.67092 | -4.70333 | 29128 ft | 378 kts | 281° |
| 2026-05-07 13:36 | 61.67746 | -4.75677 | 28673 ft | 376 kts | 281° |
| 2026-05-07 13:36 | 61.68394 | -4.80990 | 28219 ft | 374 kts | 281° |
| 2026-05-07 13:37 | 61.69038 | -4.86280 | 27773 ft | 372 kts | 281° |
| 2026-05-07 13:37 | 61.69674 | -4.91533 | 27352 ft | 370 kts | 281° |
| 2026-05-07 13:37 | 61.70305 | -4.96771 | 26922 ft | 368 kts | 281° |
| 2026-05-07 13:37 | 61.70931 | -5.01985 | 26515 ft | 366 kts | 281° |
| 2026-05-07 13:38 | 61.71551 | -5.07176 | 26112 ft | 364 kts | 281° |
| 2026-05-07 13:38 | 61.72166 | -5.12343 | 25698 ft | 363 kts | 281° |
| 2026-05-07 13:38 | 61.72780 | -5.17508 | 25217 ft | 363 kts | 281° |
| 2026-05-07 13:38 | 61.73392 | -5.22678 | 24734 ft | 364 kts | 281° |
| 2026-05-07 13:39 | 61.74006 | -5.27880 | 24199 ft | 366 kts | 281° |
| 2026-05-07 13:39 | 61.74620 | -5.33078 | 23779 ft | 364 kts | 281° |
| 2026-05-07 13:39 | 61.75220 | -5.38187 | 23371 ft | 363 kts | 281° |
| 2026-05-07 13:39 | 61.75823 | -5.43342 | 22964 ft | 361 kts | 281° |
| 2026-05-07 13:40 | 61.76419 | -5.48476 | 22524 ft | 359 kts | 281° |
| 2026-05-07 13:40 | 61.77012 | -5.53585 | 22099 ft | 357 kts | 281° |
| 2026-05-07 13:40 | 61.77601 | -5.58667 | 21667 ft | 355 kts | 281° |
| 2026-05-07 13:40 | 61.78183 | -5.63726 | 21225 ft | 354 kts | 281° |
| 2026-05-07 13:41 | 61.78759 | -5.68748 | 20781 ft | 351 kts | 281° |
| 2026-05-07 13:41 | 61.79330 | -5.73758 | 20344 ft | 349 kts | 281° |
| 2026-05-07 13:41 | 61.79899 | -5.78739 | 19906 ft | 347 kts | 281° |
| 2026-05-07 13:41 | 61.80464 | -5.83691 | 19462 ft | 346 kts | 281° |
| 2026-05-07 13:42 | 61.81025 | -5.88621 | 19024 ft | 344 kts | 281° |
| 2026-05-07 13:42 | 61.81579 | -5.93526 | 18588 ft | 342 kts | 281° |
| 2026-05-07 13:42 | 61.82125 | -5.98409 | 18149 ft | 340 kts | 281° |
| 2026-05-07 13:42 | 61.82666 | -6.03269 | 17713 ft | 339 kts | 281° |
| 2026-05-07 13:43 | 61.83203 | -6.08106 | 17274 ft | 337 kts | 281° |
| 2026-05-07 13:43 | 61.83736 | -6.12919 | 16842 ft | 335 kts | 281° |
| 2026-05-07 13:43 | 61.84269 | -6.17711 | 16408 ft | 334 kts | 281° |
| 2026-05-07 13:43 | 61.84801 | -6.22484 | 15987 ft | 333 kts | 281° |
| 2026-05-07 13:44 | 61.85326 | -6.27249 | 15540 ft | 332 kts | 281° |
| 2026-05-07 13:44 | 61.85845 | -6.31996 | 15108 ft | 330 kts | 281° |
| 2026-05-07 13:44 | 61.86359 | -6.36727 | 14688 ft | 329 kts | 281° |
| 2026-05-07 13:44 | 61.86870 | -6.41429 | 14281 ft | 327 kts | 281° |
| 2026-05-07 13:45 | 61.87378 | -6.46131 | 14015 ft | 327 kts | 281° |
| 2026-05-07 13:45 | 61.87884 | -6.50822 | 13632 ft | 327 kts | 281° |
| 2026-05-07 13:45 | 61.88391 | -6.55517 | 13220 ft | 326 kts | 281° |
| 2026-05-07 13:45 | 61.89002 | -6.60134 | 12806 ft | 325 kts | 286° |
| 2026-05-07 13:46 | 61.89708 | -6.64680 | 12397 ft | 324 kts | 286° |
| 2026-05-07 13:46 | 61.90408 | -6.69208 | 11999 ft | 322 kts | 285° |
| 2026-05-07 13:46 | 61.91103 | -6.73711 | 11596 ft | 320 kts | 285° |
| 2026-05-07 13:46 | 61.91796 | -6.78191 | 11199 ft | 319 kts | 285° |
| 2026-05-07 13:47 | 61.92472 | -6.82595 | 10813 ft | 317 kts | 286° |
| 2026-05-07 13:47 | 61.93152 | -6.87034 | 10422 ft | 316 kts | 286° |
| 2026-05-07 13:47 | 61.93824 | -6.91451 | 10122 ft | 311 kts | 285° |
| 2026-05-07 13:47 | 61.94474 | -6.95751 | 9970 ft | 301 kts | 285° |
| 2026-05-07 13:48 | 61.95104 | -6.99925 | 9716 ft | 296 kts | 285° |
| 2026-05-07 13:48 | 61.95737 | -7.04121 | 9195 ft | 302 kts | 286° |
| 2026-05-07 13:48 | 61.96382 | -7.08386 | 8689 ft | 300 kts | 286° |
| 2026-05-07 13:48 | 61.97009 | -7.12549 | 8199 ft | 292 kts | 286° |
| 2026-05-07 13:49 | 61.97622 | -7.16639 | 7725 ft | 290 kts | 286° |
| 2026-05-07 13:49 | 61.98239 | -7.20763 | 7242 ft | 295 kts | 286° |
| 2026-05-07 13:49 | 61.98864 | -7.24953 | 6734 ft | 299 kts | 286° |
| 2026-05-07 13:49 | 61.99497 | -7.29199 | 6249 ft | 303 kts | 286° |
| 2026-05-07 13:50 | 62.00137 | -7.33494 | 5742 ft | 306 kts | 286° |
| 2026-05-07 13:50 | 62.00781 | -7.37823 | 5364 ft | 304 kts | 287° |
| 2026-05-07 13:50 | 62.01406 | -7.42024 | 5293 ft | 291 kts | 287° |
| 2026-05-07 13:50 | 62.02003 | -7.46051 | 5203 ft | 280 kts | 287° |
| 2026-05-07 13:51 | 62.02775 | -7.49815 | 4865 ft | 278 kts | 303° |
| 2026-05-07 13:51 | 62.04025 | -7.52944 | 4470 ft | 279 kts | 321° |
| 2026-05-07 13:51 | 62.05597 | -7.55159 | 4096 ft | 263 kts | 338° |
| 2026-05-07 13:51 | 62.07253 | -7.56045 | 3994 ft | 230 kts | 6° |
| 2026-05-07 13:52 | 62.08689 | -7.55332 | 3934 ft | 200 kts | 31° |
| 2026-05-07 13:52 | 62.09766 | -7.53558 | 3411 ft | 197 kts | 55° |
| 2026-05-07 13:52 | 62.10368 | -7.50960 | 2853 ft | 195 kts | 79° |
| 2026-05-07 13:52 | 62.10431 | -7.48133 | 2466 ft | 189 kts | 98° |
| 2026-05-07 13:53 | 62.10039 | -7.45563 | 2209 ft | 176 kts | 114° |
| 2026-05-07 13:53 | 62.09565 | -7.43287 | 1947 ft | 160 kts | 111° |
| 2026-05-07 13:53 | 62.09199 | -7.41202 | 1707 ft | 141 kts | 109° |
| 2026-05-07 13:53 | 62.08873 | -7.39317 | 1509 ft | 133 kts | 108° |
| 2026-05-07 13:54 | 62.08571 | -7.37477 | 1266 ft | 130 kts | 109° |
| 2026-05-07 13:54 | 62.08242 | -7.35693 | 1078 ft | 129 kts | 112° |
| 2026-05-07 13:54 | 62.07876 | -7.33938 | 949 ft | 130 kts | 113° |
| 2026-05-07 13:54 | 62.07479 | -7.32211 | 723 ft | 129 kts | 116° |
| 2026-05-07 13:55 | 62.07054 | -7.30517 | 491 ft | 129 kts | 116° |
| 2026-05-07 13:55 | 62.06633 | -7.28820 | 279 ft | 126 kts | 115° |
| 2026-05-07 13:55 | 62.06318 | -7.27555 | 288 ft | 56 kts | 118° |
| 2026-05-07 13:55 | 62.06234 | -7.27271 | 284 ft | 5 kts | 137° |
| 2026-05-07 13:56 | 62.06242 | -7.27262 | 282 ft | 1 kts | 347° |
| 2026-05-07 13:56 | 62.06253 | -7.27298 | 281 ft | 7 kts | 301° |
| 2026-05-07 13:56 | 62.06289 | -7.27438 | 286 ft | 15 kts | 299° |
| 2026-05-07 13:56 | 62.06345 | -7.27663 | 289 ft | 19 kts | 298° |
| 2026-05-07 13:57 | 62.06405 | -7.27907 | 287 ft | 13 kts | 297° |
| 2026-05-07 13:57 | 62.06434 | -7.28031 | 286 ft | 10 kts | 296° |
| 2026-05-07 13:57 | 62.06478 | -7.28145 | 281 ft | 10 kts | 342° |
| 2026-05-07 13:57 | 62.06552 | -7.28111 | 282 ft | 7 kts | 17° |
| 2026-05-07 13:58 | 62.06590 | -7.28094 | 278 ft | 4 kts | 7° |
| 2026-05-07 13:58 | 62.06600 | -7.28093 | 278 ft | 1 kts | 4° |
| 2026-05-07 13:58 | 62.06605 | -7.28092 | 278 ft | 1 kts | 4° |
| 2026-05-07 13:58 | 62.06618 | -7.28090 | 279 ft | 4 kts | 5° |
| 2026-05-07 13:59 | 62.06637 | -7.28077 | 279 ft | 4 kts | 27° |
| 2026-05-07 13:59 | 62.06647 | -7.28013 | 284 ft | 5 kts | 79° |
| 2026-05-07 13:59 | 62.06661 | -7.27977 | 279 ft | 1 kts | 32° |
| 2026-05-07 13:59 | 62.06673 | -7.27962 | 279 ft | 2 kts | 32° |
| 2026-05-07 14:00 | 62.06682 | -7.27951 | 279 ft | 0 kts | 30° |
| 2026-05-07 14:00 | 62.06684 | -7.27948 | 279 ft | 0 kts | 30° |
| 2026-05-07 14:00 | 62.06685 | -7.27947 | 279 ft | 0 kts | 30° |